createdAt,value
2018-08-24T00:01:49.224Z,22.57
2018-08-24T00:02:49.212Z,22.60
2018-08-24T00:04:41.406Z,22.56
2018-08-24T00:05:41.191Z,22.64
2018-08-24T00:07:34.479Z,22.59
2018-08-24T00:08:33.908Z,22.54
2018-08-24T00:10:26.459Z,22.60
2018-08-24T00:11:25.889Z,22.54
2018-08-24T00:13:19.140Z,22.59
2018-08-24T00:14:18.545Z,22.59
2018-08-24T00:16:11.367Z,22.57
2018-08-24T00:17:10.527Z,22.67
2018-08-24T00:19:02.415Z,22.64
2018-08-24T00:20:02.397Z,22.64
2018-08-24T00:21:55.325Z,22.60
2018-08-24T00:22:55.082Z,22.64
2018-08-24T00:24:47.074Z,22.60
2018-08-24T00:25:47.089Z,22.57
2018-08-24T00:27:39.633Z,22.59
2018-08-24T00:28:39.398Z,22.50
2018-08-24T00:30:32.078Z,22.53
2018-08-24T00:31:32.072Z,22.46
2018-08-24T00:33:24.897Z,22.50
2018-08-24T00:34:24.095Z,22.49
2018-08-24T00:36:16.773Z,22.46
2018-08-24T00:37:16.408Z,22.52
2018-08-24T00:39:08.975Z,22.50
2018-08-24T00:40:08.749Z,22.39
2018-08-24T00:42:01.428Z,22.41
2018-08-24T00:43:01.087Z,22.41
2018-08-24T00:44:53.985Z,22.39
2018-08-24T00:45:53.427Z,22.38
2018-08-24T00:47:45.770Z,22.37
2018-08-24T00:48:45.740Z,22.41
2018-08-24T00:50:38.324Z,22.41
2018-08-24T00:51:38.092Z,22.31
2018-08-24T00:53:31.858Z,22.41
2018-08-24T00:54:31.431Z,22.41
2018-08-24T00:56:24.245Z,22.41
2018-08-24T00:57:23.761Z,22.32
2018-08-24T00:59:16.224Z,22.32
2018-08-24T01:00:16.139Z,22.38
2018-08-24T01:02:09.590Z,22.39
2018-08-24T01:03:08.773Z,22.43
2018-08-24T01:05:00.375Z,22.39
2018-08-24T01:06:00.306Z,22.41
2018-08-24T01:07:53.182Z,22.37
2018-08-24T01:08:52.614Z,22.37
2018-08-24T01:10:45.294Z,22.37
2018-08-24T01:11:44.987Z,22.38
2018-08-24T01:13:37.846Z,22.37
2018-08-24T01:14:37.313Z,22.52
2018-08-24T01:16:29.660Z,22.46
2018-08-24T01:17:29.988Z,22.47
2018-08-24T01:19:22.219Z,22.43
2018-08-24T01:20:22.331Z,22.49
2018-08-24T01:22:15.780Z,22.50
2018-08-24T01:23:15.330Z,22.44
2018-08-24T01:25:09.484Z,22.47
2018-08-24T01:26:09.023Z,22.52
2018-08-24T01:28:01.339Z,22.56
2018-08-24T01:29:01.325Z,22.65
2018-08-24T01:30:54.141Z,22.60
2018-08-24T01:31:53.686Z,22.62
2018-08-24T01:33:45.662Z,22.62
2018-08-24T01:34:46.012Z,22.68
2018-08-24T01:36:38.600Z,22.67
2018-08-24T01:37:38.388Z,22.69
2018-08-24T01:39:30.727Z,22.75
2018-08-24T01:40:30.713Z,22.64
2018-08-24T01:42:22.948Z,22.74
2018-08-24T01:43:23.031Z,22.69
2018-08-24T01:45:15.374Z,22.57
2018-08-24T01:46:15.386Z,22.60
2018-08-24T01:48:07.603Z,22.59
2018-08-24T01:49:07.725Z,22.59
2018-08-24T01:51:00.068Z,22.50
2018-08-24T01:51:59.713Z,22.50
2018-08-24T01:53:52.598Z,22.49
2018-08-24T01:54:52.361Z,22.49
2018-08-24T01:56:45.300Z,22.53
2018-08-24T01:57:44.727Z,22.37
2018-08-24T01:59:36.971Z,22.39
2018-08-24T02:00:36.723Z,22.43
2018-08-24T02:02:29.073Z,22.41
2018-08-24T02:03:29.383Z,22.43
2018-08-24T02:05:21.629Z,22.50
2018-08-24T02:06:21.401Z,22.38
2018-08-24T02:08:14.752Z,22.41
2018-08-24T02:09:14.752Z,22.37
2018-08-24T02:11:07.340Z,22.37
2018-08-24T02:12:07.123Z,22.39
2018-08-24T02:14:00.475Z,22.39
2018-08-24T02:15:00.795Z,22.38
2018-08-24T02:16:53.338Z,22.41
2018-08-24T02:17:53.131Z,22.34
2018-08-24T02:19:45.482Z,22.44
2018-08-24T02:20:45.135Z,22.41
2018-08-24T02:22:37.299Z,22.39
